sensor_id;sensor_type;location;lat;lon;timestamp;pressure;altitude;pressure_sealevel;temperature;humidity
11038;BME280;5572;49.540;11.932;2023-02-19T00:01:39;96598.59;;;9.01;100.00
11038;BME280;5572;49.540;11.932;2023-02-19T00:04:08;96590.53;;;8.96;100.00
11038;BME280;5572;49.540;11.932;2023-02-19T00:06:35;96573.53;;;9.01;100.00
11038;BME280;5572;49.540;11.932;2023-02-19T00:09:03;96577.59;;;8.98;100.00
11038;BME280;5572;49.540;11.932;2023-02-19T00:11:31;96558.72;;;8.98;100.00
11038;BME280;5572;49.540;11.932;2023-02-19T00:13:59;96565.19;;;8.97;100.00
11038;BME280;5572;49.540;11.932;2023-02-19T00:16:27;96551.16;;;9.00;100.00
11038;BME280;5572;49.540;11.932;2023-02-19T00:18:56;96535.53;;;8.97;100.00
11038;BME280;5572;49.540;11.932;2023-02-19T00:21:24;96542.78;;;9.07;100.00
11038;BME280;5572;49.540;11.932;2023-02-19T00:23:51;96526.63;;;9.02;100.00
11038;BME280;5572;49.540;11.932;2023-02-19T00:26:20;96533.84;;;9.06;100.00
11038;BME280;5572;49.540;11.932;2023-02-19T00:28:48;96535.53;;;9.02;100.00
11038;BME280;5572;49.540;11.932;2023-02-19T00:31:17;96521.50;;;9.00;100.00
11038;BME280;5572;49.540;11.932;2023-02-19T00:33:44;96514.22;;;9.01;100.00
11038;BME280;5572;49.540;11.932;2023-02-19T00:36:12;96523.13;;;9.01;100.00
11038;BME280;5572;49.540;11.932;2023-02-19T00:38:40;96508.56;;;9.02;100.00
11038;BME280;5572;49.540;11.932;2023-02-19T00:41:07;96508.28;;;9.04;100.00
11038;BME280;5572;49.540;11.932;2023-02-19T00:43:47;96511.81;;;8.99;100.00
11038;BME280;5572;49.540;11.932;2023-02-19T00:46:14;96507.50;;;8.98;100.00
11038;BME280;5572;49.540;11.932;2023-02-19T00:48:40;96506.72;;;8.98;100.00
11038;BME280;5572;49.540;11.932;2023-02-19T00:51:07;96495.63;;;8.99;100.00
11038;BME280;5572;49.540;11.932;2023-02-19T00:53:34;96501.81;;;9.00;100.00
11038;BME280;5572;49.540;11.932;2023-02-19T00:56:00;96489.94;;;9.06;100.00
11038;BME280;5572;49.540;11.932;2023-02-19T00:58:27;96484.03;;;8.99;100.00
11038;BME280;5572;49.540;11.932;2023-02-19T01:00:55;96466.50;;;9.01;100.00
11038;BME280;5572;49.540;11.932;2023-02-19T01:03:22;96457.84;;;9.04;100.00
11038;BME280;5572;49.540;11.932;2023-02-19T01:05:49;96452.28;;;8.96;100.00
11038;BME280;5572;49.540;11.932;2023-02-19T01:08:16;96450.59;;;9.00;100.00
11038;BME280;5572;49.540;11.932;2023-02-19T01:10:43;96438.25;;;8.94;100.00
11038;BME280;5572;49.540;11.932;2023-02-19T01:13:10;96442.78;;;9.03;100.00
11038;BME280;5572;49.540;11.932;2023-02-19T01:15:37;96430.94;;;8.99;100.00
11038;BME280;5572;49.540;11.932;2023-02-19T01:18:05;96419.63;;;8.97;100.00
11038;BME280;5572;49.540;11.932;2023-02-19T01:20:33;96410.75;;;8.97;100.00
11038;BME280;5572;49.540;11.932;2023-02-19T01:22:59;96400.72;;;9.02;100.00
11038;BME280;5572;49.540;11.932;2023-02-19T01:25:26;96406.91;;;9.03;100.00
11038;BME280;5572;49.540;11.932;2023-02-19T01:27:52;96406.13;;;9.02;100.00
11038;BME280;5572;49.540;11.932;2023-02-19T01:30:19;96406.16;;;8.97;100.00
11038;BME280;5572;49.540;11.932;2023-02-19T01:32:45;96409.69;;;8.93;100.00
11038;BME280;5572;49.540;11.932;2023-02-19T01:35:13;96401.31;;;8.94;100.00
11038;BME280;5572;49.540;11.932;2023-02-19T01:37:40;96400.53;;;8.94;100.00
11038;BME280;5572;49.540;11.932;2023-02-19T01:40:07;96396.22;;;8.93;100.00
11038;BME280;5572;49.540;11.932;2023-02-19T01:42:34;96393.00;;;8.91;100.00
11038;BME280;5572;49.540;11.932;2023-02-19T01:45:26;96387.06;;;8.89;100.00
11038;BME280;5572;49.540;11.932;2023-02-19T01:48:06;96375.50;;;8.88;100.00
11038;BME280;5572;49.540;11.932;2023-02-19T01:50:40;96359.88;;;8.85;100.00
11038;BME280;5572;49.540;11.932;2023-02-19T01:53:11;96345.06;;;8.88;100.00
11038;BME280;5572;49.540;11.932;2023-02-19T01:55:40;96347.75;;;8.88;100.00
11038;BME280;5572;49.540;11.932;2023-02-19T01:58:08;96349.88;;;8.91;100.00
11038;BME280;5572;49.540;11.932;2023-02-19T02:00:36;96341.78;;;8.91;100.00
11038;BME280;5572;49.540;11.932;2023-02-19T02:03:03;96341.78;;;8.91;100.00
11038;BME280;5572;49.540;11.932;2023-02-19T02:05:45;96339.41;;;8.84;100.00
11038;BME280;5572;49.540;11.932;2023-02-19T02:08:13;96340.03;;;8.76;100.00
11038;BME280;5572;49.540;11.932;2023-02-19T02:10:58;96330.88;;;8.77;100.00
11038;BME280;5572;49.540;11.932;2023-02-19T02:13:25;96306.41;;;8.69;100.00
11038;BME280;5572;49.540;11.932;2023-02-19T02:16:01;96320.41;;;8.71;100.00
11038;BME280;5572;49.540;11.932;2023-02-19T02:18:36;96328.25;;;8.67;100.00
11038;BME280;5572;49.540;11.932;2023-02-19T02:21:32;96333.72;;;8.62;100.00
11038;BME280;5572;49.540;11.932;2023-02-19T02:24:22;96354.41;;;8.67;100.00
11038;BME280;5572;49.540;11.932;2023-02-19T02:27:11;96358.44;;;8.64;100.00
11038;BME280;5572;49.540;11.932;2023-02-19T02:30:06;96382.44;;;8.66;100.00
11038;BME280;5572;49.540;11.932;2023-02-19T02:32:38;96391.63;;;8.60;100.00
11038;BME280;5572;49.540;11.932;2023-02-19T02:35:08;96402.13;;;8.61;100.00
11038;BME280;5572;49.540;11.932;2023-02-19T02:37:38;96415.88;;;8.60;100.00
11038;BME280;5572;49.540;11.932;2023-02-19T02:40:09;96440.41;;;8.58;100.00
11038;BME280;5572;49.540;11.932;2023-02-19T02:42:38;96435.31;;;8.52;100.00
11038;BME280;5572;49.540;11.932;2023-02-19T02:45:25;96454.47;;;8.51;100.00
11038;BME280;5572;49.540;11.932;2023-02-19T02:48:06;96470.38;;;8.47;100.00
11038;BME280;5572;49.540;11.932;2023-02-19T02:50:36;96473.91;;;8.43;100.00
11038;BME280;5572;49.540;11.932;2023-02-19T02:53:07;96482.53;;;8.40;100.00
11038;BME280;5572;49.540;11.932;2023-02-19T02:55:54;96494.16;;;8.35;100.00
11038;BME280;5572;49.540;11.932;2023-02-19T02:58:22;96508.66;;;8.39;100.00
11038;BME280;5572;49.540;11.932;2023-02-19T03:00:53;96517.53;;;8.40;100.00
11038;BME280;5572;49.540;11.932;2023-02-19T03:03:41;96519.41;;;8.39;100.00
11038;BME280;5572;49.540;11.932;2023-02-19T03:06:11;96527.50;;;8.39;100.00
11038;BME280;5572;49.540;11.932;2023-02-19T03:08:41;96527.78;;;8.38;100.00
11038;BME280;5572;49.540;11.932;2023-02-19T03:11:10;96534.78;;;8.39;100.00
11038;BME280;5572;49.540;11.932;2023-02-19T03:13:57;96534.75;;;8.44;100.00
11038;BME280;5572;49.540;11.932;2023-02-19T03:16:47;96538.56;;;8.43;100.00
11038;BME280;5572;49.540;11.932;2023-02-19T03:19:35;96553.34;;;8.45;100.00
11038;BME280;5572;49.540;11.932;2023-02-19T03:22:05;96556.59;;;8.42;100.00
11038;BME280;5572;49.540;11.932;2023-02-19T03:24:40;96552.03;;;8.38;100.00
11038;BME280;5572;49.540;11.932;2023-02-19T03:27:27;96569.75;;;8.44;100.00
11038;BME280;5572;49.540;11.932;2023-02-19T03:29:57;96581.66;;;8.43;100.00
11038;BME280;5572;49.540;11.932;2023-02-19T03:32:31;96591.34;;;8.39;100.00
11038;BME280;5572;49.540;11.932;2023-02-19T03:35:01;96594.81;;;8.39;100.00
11038;BME280;5572;49.540;11.932;2023-02-19T03:37:34;96599.16;;;8.35;100.00
11038;BME280;5572;49.540;11.932;2023-02-19T03:40:04;96591.63;;;8.37;100.00
11038;BME280;5572;49.540;11.932;2023-02-19T03:42:36;96597.00;;;8.32;100.00
11038;BME280;5572;49.540;11.932;2023-02-19T03:45:30;96594.03;;;8.34;100.00
11038;BME280;5572;49.540;11.932;2023-02-19T03:48:11;96604.28;;;8.27;100.00
11038;BME280;5572;49.540;11.932;2023-02-19T03:50:46;96614.53;;;8.30;100.00
11038;BME280;5572;49.540;11.932;2023-02-19T03:53:18;96611.00;;;8.29;100.00
11038;BME280;5572;49.540;11.932;2023-02-19T03:55:55;96611.56;;;8.31;100.00
11038;BME280;5572;49.540;11.932;2023-02-19T03:58:29;96619.91;;;8.30;100.00
11038;BME280;5572;49.540;11.932;2023-02-19T04:01:01;96626.34;;;8.34;100.00
11038;BME280;5572;49.540;11.932;2023-02-19T04:03:35;96623.97;;;8.27;100.00
11038;BME280;5572;49.540;11.932;2023-02-19T04:06:11;96630.13;;;8.38;100.00
11038;BME280;5572;49.540;11.932;2023-02-19T04:08:39;96627.69;;;8.41;100.00
11038;BME280;5572;49.540;11.932;2023-02-19T04:11:10;96630.94;;;8.38;100.00
11038;BME280;5572;49.540;11.932;2023-02-19T04:13:41;96629.59;;;8.41;100.00
11038;BME280;5572;49.540;11.932;2023-02-19T04:16:13;96635.75;;;8.46;100.00
11038;BME280;5572;49.540;11.932;2023-02-19T04:18:45;96646.81;;;8.40;100.00
11038;BME280;5572;49.540;11.932;2023-02-19T04:21:13;96638.47;;;8.41;100.00
11038;BME280;5572;49.540;11.932;2023-02-19T04:23:43;96632.28;;;8.41;100.00
11038;BME280;5572;49.540;11.932;2023-02-19T04:26:11;96644.66;;;8.42;100.00
11038;BME280;5572;49.540;11.932;2023-02-19T04:28:40;96658.38;;;8.40;100.00
11038;BME280;5572;49.540;11.932;2023-02-19T04:31:08;96647.34;;;8.37;100.00
11038;BME280;5572;49.540;11.932;2023-02-19T04:33:35;96657.31;;;8.41;100.00
11038;BME280;5572;49.540;11.932;2023-02-19T04:36:05;96658.63;;;8.44;100.00
11038;BME280;5572;49.540;11.932;2023-02-19T04:38:32;96662.16;;;8.44;100.00
11038;BME280;5572;49.540;11.932;2023-02-19T04:40:59;96656.78;;;8.44;100.00
11038;BME280;5572;49.540;11.932;2023-02-19T04:43:25;96653.53;;;8.47;100.00
11038;BME280;5572;49.540;11.932;2023-02-19T04:45:52;96652.75;;;8.42;100.00
11038;BME280;5572;49.540;11.932;2023-02-19T04:48:19;96659.19;;;8.46;100.00
11038;BME280;5572;49.540;11.932;2023-02-19T04:50:45;96650.59;;;8.39;100.00
11038;BME280;5572;49.540;11.932;2023-02-19T04:53:13;96654.63;;;8.41;100.00
11038;BME280;5572;49.540;11.932;2023-02-19T04:55:40;96671.56;;;8.47;100.00
11038;BME280;5572;49.540;11.932;2023-02-19T04:58:06;96659.44;;;8.49;100.00
11038;BME280;5572;49.540;11.932;2023-02-19T05:00:33;96653.78;;;8.46;100.00
11038;BME280;5572;49.540;11.932;2023-02-19T05:03:00;96633.91;;;8.42;100.00
11038;BME280;5572;49.540;11.932;2023-02-19T05:05:26;96643.59;;;8.43;100.00
11038;BME280;5572;49.540;11.932;2023-02-19T05:07:53;96640.63;;;8.44;100.00
11038;BME280;5572;49.540;11.932;2023-02-19T05:10:21;96647.06;;;8.48;100.00
11038;BME280;5572;49.540;11.932;2023-02-19T05:12:48;96653.22;;;8.58;100.00
11038;BME280;5572;49.540;11.932;2023-02-19T05:15:15;96653.22;;;8.58;100.00
11038;BME280;5572;49.540;11.932;2023-02-19T05:17:41;96652.97;;;8.55;100.00
11038;BME280;5572;49.540;11.932;2023-02-19T05:20:08;96646.78;;;8.50;100.00
11038;BME280;5572;49.540;11.932;2023-02-19T05:22:35;96630.59;;;8.54;100.00
11038;BME280;5572;49.540;11.932;2023-02-19T05:25:02;96628.97;;;8.53;100.00
11038;BME280;5572;49.540;11.932;2023-02-19T05:27:30;96616.59;;;8.57;100.00
11038;BME280;5572;49.540;11.932;2023-02-19T05:29:57;96600.72;;;8.56;100.00
11038;BME280;5572;49.540;11.932;2023-02-19T05:32:24;96590.72;;;8.56;100.00
11038;BME280;5572;49.540;11.932;2023-02-19T05:34:50;96585.34;;;8.61;100.00
11038;BME280;5572;49.540;11.932;2023-02-19T05:37:17;96574.81;;;8.65;100.00
11038;BME280;5572;49.540;11.932;2023-02-19T05:39:43;96551.38;;;8.60;100.00
11038;BME280;5572;49.540;11.932;2023-02-19T05:42:12;96533.91;;;8.58;100.00
11038;BME280;5572;49.540;11.932;2023-02-19T05:44:40;96528.72;;;8.66;100.00
11038;BME280;5572;49.540;11.932;2023-02-19T05:47:06;96508.00;;;8.62;100.00
11038;BME280;5572;49.540;11.932;2023-02-19T05:49:33;96490.47;;;8.64;100.00
11038;BME280;5572;49.540;11.932;2023-02-19T05:52:00;96473.78;;;8.62;100.00
11038;BME280;5572;49.540;11.932;2023-02-19T05:54:27;96462.97;;;8.67;100.00
11038;BME280;5572;49.540;11.932;2023-02-19T05:56:54;96448.97;;;8.65;100.00
11038;BME280;5572;49.540;11.932;2023-02-19T05:59:22;96426.88;;;8.63;100.00
11038;BME280;5572;49.540;11.932;2023-02-19T06:01:52;96419.66;;;8.59;100.00
11038;BME280;5572;49.540;11.932;2023-02-19T06:04:19;96403.22;;;8.60;100.00
11038;BME280;5572;49.540;11.932;2023-02-19T06:06:46;96397.00;;;8.60;100.00
11038;BME280;5572;49.540;11.932;2023-02-19T06:09:13;96397.59;;;8.57;100.00
11038;BME280;5572;49.540;11.932;2023-02-19T06:11:39;96376.59;;;8.54;100.00
11038;BME280;5572;49.540;11.932;2023-02-19T06:14:07;96387.06;;;8.60;100.00
11038;BME280;5572;49.540;11.932;2023-02-19T06:16:34;96378.75;;;8.52;100.00
11038;BME280;5572;49.540;11.932;2023-02-19T06:19:02;96381.97;;;8.54;100.00
11038;BME280;5572;49.540;11.932;2023-02-19T06:21:29;96377.38;;;8.54;100.00
11038;BME280;5572;49.540;11.932;2023-02-19T06:23:55;96367.22;;;8.47;100.00
11038;BME280;5572;49.540;11.932;2023-02-19T06:26:23;96366.19;;;8.43;100.00
11038;BME280;5572;49.540;11.932;2023-02-19T06:28:51;96379.88;;;8.46;100.00
11038;BME280;5572;49.540;11.932;2023-02-19T06:31:20;96376.19;;;8.37;100.00
11038;BME280;5572;49.540;11.932;2023-02-19T06:33:47;96384.25;;;8.37;100.00
11038;BME280;5572;49.540;11.932;2023-02-19T06:36:18;96400.94;;;8.39;100.00
11038;BME280;5572;49.540;11.932;2023-02-19T06:38:45;96408.75;;;8.41;100.00
11038;BME280;5572;49.540;11.932;2023-02-19T06:41:13;96401.75;;;8.35;100.00
11038;BME280;5572;49.540;11.932;2023-02-19T06:43:40;96415.50;;;8.38;100.00
11038;BME280;5572;49.540;11.932;2023-02-19T06:46:07;96425.44;;;8.43;100.00
11038;BME280;5572;49.540;11.932;2023-02-19T06:48:34;96436.44;;;8.46;100.00
11038;BME280;5572;49.540;11.932;2023-02-19T06:51:01;96437.28;;;8.42;100.00
11038;BME280;5572;49.540;11.932;2023-02-19T06:53:29;96435.97;;;8.34;100.00
11038;BME280;5572;49.540;11.932;2023-02-19T06:55:57;96448.84;;;8.42;100.00
11038;BME280;5572;49.540;11.932;2023-02-19T06:58:23;96458.84;;;8.42;100.00
11038;BME280;5572;49.540;11.932;2023-02-19T07:00:50;96468.53;;;8.43;100.00
11038;BME280;5572;49.540;11.932;2023-02-19T07:03:17;96478.13;;;8.53;100.00
11038;BME280;5572;49.540;11.932;2023-02-19T07:05:43;96473.03;;;8.52;100.00
11038;BME280;5572;49.540;11.932;2023-02-19T07:08:10;96474.69;;;8.48;100.00
11038;BME280;5572;49.540;11.932;2023-02-19T07:10:38;96468.19;;;8.54;100.00
11038;BME280;5572;49.540;11.932;2023-02-19T07:13:04;96457.34;;;8.59;100.00
11038;BME280;5572;49.540;11.932;2023-02-19T07:15:32;96464.88;;;8.67;100.00
11038;BME280;5572;49.540;11.932;2023-02-19T07:17:59;96454.41;;;8.60;100.00
11038;BME280;5572;49.540;11.932;2023-02-19T07:20:25;96455.19;;;8.61;100.00
11038;BME280;5572;49.540;11.932;2023-02-19T07:22:52;96462.50;;;8.60;100.00
11038;BME280;5572;49.540;11.932;2023-02-19T07:25:19;96468.38;;;8.67;100.00
11038;BME280;5572;49.540;11.932;2023-02-19T07:27:47;96457.88;;;8.66;100.00
11038;BME280;5572;49.540;11.932;2023-02-19T07:30:14;96457.28;;;8.74;100.00
11038;BME280;5572;49.540;11.932;2023-02-19T07:32:40;96453.44;;;8.80;100.00
11038;BME280;5572;49.540;11.932;2023-02-19T07:35:09;96454.72;;;8.92;100.00
11038;BME280;5572;49.540;11.932;2023-02-19T07:37:36;96448.25;;;8.93;100.00
11038;BME280;5572;49.540;11.932;2023-02-19T07:40:04;96443.34;;;9.00;100.00
11038;BME280;5572;49.540;11.932;2023-02-19T07:42:30;96449.72;;;9.09;100.00
11038;BME280;5572;49.540;11.932;2023-02-19T07:44:58;96446.25;;;9.04;100.00
11038;BME280;5572;49.540;11.932;2023-02-19T07:47:25;96443.56;;;9.04;100.00
11038;BME280;5572;49.540;11.932;2023-02-19T07:49:51;96435.28;;;8.95;100.00
11038;BME280;5572;49.540;11.932;2023-02-19T07:52:18;96417.50;;;8.94;100.00
11038;BME280;5572;49.540;11.932;2023-02-19T07:54:45;96418.00;;;8.96;100.00
11038;BME280;5572;49.540;11.932;2023-02-19T07:57:11;96420.69;;;9.01;100.00
11038;BME280;5572;49.540;11.932;2023-02-19T07:59:38;96420.59;;;9.11;100.00
11038;BME280;5572;49.540;11.932;2023-02-19T08:02:13;96404.50;;;9.01;100.00
11038;BME280;5572;49.540;11.932;2023-02-19T08:04:58;96399.66;;;9.03;100.00
11038;BME280;5572;49.540;11.932;2023-02-19T08:07:30;96396.94;;;9.03;100.00
11038;BME280;5572;49.540;11.932;2023-02-19T08:09:56;96391.06;;;8.96;100.00
11038;BME280;5572;49.540;11.932;2023-02-19T08:12:54;96376.78;;;8.96;100.00
11038;BME280;5572;49.540;11.932;2023-02-19T08:15:38;96377.13;;;8.89;100.00
11038;BME280;5572;49.540;11.932;2023-02-19T08:18:06;96374.50;;;8.79;100.00
11038;BME280;5572;49.540;11.932;2023-02-19T08:20:32;96367.72;;;8.87;100.00
11038;BME280;5572;49.540;11.932;2023-02-19T08:22:59;96362.00;;;8.93;100.00
11038;BME280;5572;49.540;11.932;2023-02-19T08:25:26;96371.84;;;9.08;100.00
11038;BME280;5572;49.540;11.932;2023-02-19T08:27:52;96360.28;;;9.02;100.00
11038;BME280;5572;49.540;11.932;2023-02-19T08:30:19;96360.31;;;8.97;100.00
11038;BME280;5572;49.540;11.932;2023-02-19T08:32:46;96346.28;;;9.00;100.00
11038;BME280;5572;49.540;11.932;2023-02-19T08:35:14;96352.75;;;8.99;100.00
11038;BME280;5572;49.540;11.932;2023-02-19T08:37:41;96339.66;;;9.16;100.00
11038;BME280;5572;49.540;11.932;2023-02-19T08:40:08;96343.19;;;9.12;100.00
11038;BME280;5572;49.540;11.932;2023-02-19T08:42:35;96341.91;;;9.33;100.00
11038;BME280;5572;49.540;11.932;2023-02-19T08:45:02;96347.63;;;9.26;100.00
11038;BME280;5572;49.540;11.932;2023-02-19T08:47:29;96322.78;;;9.29;100.00
11038;BME280;5572;49.540;11.932;2023-02-19T08:49:56;96314.69;;;9.29;100.00
11038;BME280;5572;49.540;11.932;2023-02-19T08:52:24;96323.59;;;9.30;100.00
11038;BME280;5572;49.540;11.932;2023-02-19T08:54:51;96312.28;;;9.51;100.00
11038;BME280;5572;49.540;11.932;2023-02-19T08:57:17;96302.72;;;9.40;100.00
11038;BME280;5572;49.540;11.932;2023-02-19T08:59:44;96295.81;;;9.29;100.00
11038;BME280;5572;49.540;11.932;2023-02-19T09:02:11;96280.31;;;9.39;100.00
11038;BME280;5572;49.540;11.932;2023-02-19T09:04:37;96257.53;;;9.27;100.00
11038;BME280;5572;49.540;11.932;2023-02-19T09:07:04;96253.50;;;9.48;100.00
11038;BME280;5572;49.540;11.932;2023-02-19T09:09:35;96251.75;;;9.57;100.00
11038;BME280;5572;49.540;11.932;2023-02-19T09:12:03;96237.03;;;9.49;100.00
11038;BME280;5572;49.540;11.932;2023-02-19T09:14:30;96248.50;;;9.78;100.00
11038;BME280;5572;49.540;11.932;2023-02-19T09:16:58;96235.44;;;9.85;100.00
11038;BME280;5572;49.540;11.932;2023-02-19T09:19:25;96219.16;;;9.53;100.00
11038;BME280;5572;49.540;11.932;2023-02-19T09:21:52;96221.09;;;9.53;100.00
11038;BME280;5572;49.540;11.932;2023-02-19T09:24:19;96206.56;;;9.49;100.00
11038;BME280;5572;49.540;11.932;2023-02-19T09:26:49;96209.69;;;9.56;100.00
11038;BME280;5572;49.540;11.932;2023-02-19T09:29:16;96212.00;;;9.44;100.00
11038;BME280;5572;49.540;11.932;2023-02-19T09:31:43;96190.88;;;9.51;100.00
11038;BME280;5572;49.540;11.932;2023-02-19T09:34:10;96190.81;;;9.38;100.00
11038;BME280;5572;49.540;11.932;2023-02-19T09:36:38;96197.00;;;9.38;100.00
11038;BME280;5572;49.540;11.932;2023-02-19T09:39:07;96212.00;;;9.44;100.00
11038;BME280;5572;49.540;11.932;2023-02-19T09:41:38;96211.00;;;9.40;100.00
11038;BME280;5572;49.540;11.932;2023-02-19T09:44:12;96233.69;;;9.57;100.00
11038;BME280;5572;49.540;11.932;2023-02-19T09:46:43;96269.91;;;9.51;100.00
11038;BME280;5572;49.540;11.932;2023-02-19T09:49:14;96267.38;;;9.60;100.00
11038;BME280;5572;49.540;11.932;2023-02-19T09:51:46;96256.59;;;9.60;100.00
11038;BME280;5572;49.540;11.932;2023-02-19T09:54:20;96279.03;;;9.55;100.00
11038;BME280;5572;49.540;11.932;2023-02-19T09:56:48;96260.81;;;9.47;100.00
11038;BME280;5572;49.540;11.932;2023-02-19T09:59:19;96264.13;;;9.39;100.00
11038;BME280;5572;49.540;11.932;2023-02-19T10:01:47;96247.06;;;9.44;100.00
11038;BME280;5572;49.540;11.932;2023-02-19T10:04:14;96258.47;;;9.41;100.00
11038;BME280;5572;49.540;11.932;2023-02-19T10:06:41;96260.06;;;9.42;100.00
11038;BME280;5572;49.540;11.932;2023-02-19T10:09:17;96280.03;;;9.41;100.00
11038;BME280;5572;49.540;11.932;2023-02-19T10:11:46;96277.34;;;9.41;100.00
11038;BME280;5572;49.540;11.932;2023-02-19T10:14:18;96277.00;;;9.47;100.00
11038;BME280;5572;49.540;11.932;2023-02-19T10:16:47;96278.13;;;9.41;100.00
11038;BME280;5572;49.540;11.932;2023-02-19T10:19:14;96276.19;;;9.47;100.00
11038;BME280;5572;49.540;11.932;2023-02-19T10:21:42;96293.69;;;9.26;100.00
11038;BME280;5572;49.540;11.932;2023-02-19T10:24:13;96313.50;;;9.17;100.00
11038;BME280;5572;49.540;11.932;2023-02-19T10:26:42;96305.56;;;9.02;100.00
11038;BME280;5572;49.540;11.932;2023-02-19T10:29:09;96298.44;;;9.11;100.00
11038;BME280;5572;49.540;11.932;2023-02-19T10:31:37;96331.66;;;9.06;100.00
11038;BME280;5572;49.540;11.932;2023-02-19T10:34:03;96314.88;;;9.38;100.00
11038;BME280;5572;49.540;11.932;2023-02-19T10:36:34;96342.13;;;9.36;100.00
11038;BME280;5572;49.540;11.932;2023-02-19T10:39:16;96332.50;;;9.30;100.00
11038;BME280;5572;49.540;11.932;2023-02-19T10:41:50;96336.50;;;9.56;100.00
11038;BME280;5572;49.540;11.932;2023-02-19T10:44:22;96342.41;;;9.58;100.00
11038;BME280;5572;49.540;11.932;2023-02-19T10:46:57;96359.78;;;9.70;100.00
11038;BME280;5572;49.540;11.932;2023-02-19T10:49:31;96359.91;;;10.07;100.00
11038;BME280;5572;49.540;11.932;2023-02-19T10:52:08;96362.59;;;10.07;100.00
11038;BME280;5572;49.540;11.932;2023-02-19T10:54:43;96354.63;;;10.16;100.00
11038;BME280;5572;49.540;11.932;2023-02-19T10:57:28;96341.28;;;10.24;100.00
11038;BME280;5572;49.540;11.932;2023-02-19T10:59:59;96348.34;;;9.78;100.00
11038;BME280;5572;49.540;11.932;2023-02-19T11:02:30;96348.84;;;9.62;100.00
11038;BME280;5572;49.540;11.932;2023-02-19T11:05:16;96360.88;;;9.69;100.00
11038;BME280;5572;49.540;11.932;2023-02-19T11:07:48;96357.66;;;9.44;100.00
11038;BME280;5572;49.540;11.932;2023-02-19T11:10:24;96377.19;;;9.59;100.00
11038;BME280;5572;49.540;11.932;2023-02-19T11:12:54;96370.16;;;9.40;100.00
11038;BME280;5572;49.540;11.932;2023-02-19T11:15:26;96376.66;;;9.34;100.00
11038;BME280;5572;49.540;11.932;2023-02-19T11:17:59;96402.75;;;9.43;100.00
11038;BME280;5572;49.540;11.932;2023-02-19T11:20:28;96408.00;;;9.30;100.00
11038;BME280;5572;49.540;11.932;2023-02-19T11:22:59;96439.75;;;9.38;100.00
11038;BME280;5572;49.540;11.932;2023-02-19T11:25:29;96450.41;;;9.25;100.00
11038;BME280;5572;49.540;11.932;2023-02-19T11:28:00;96498.63;;;9.59;100.00
11038;BME280;5572;49.540;11.932;2023-02-19T11:30:39;96504.47;;;9.43;100.00
11038;BME280;5572;49.540;11.932;2023-02-19T11:33:30;96539.53;;;9.71;100.00
11038;BME280;5572;49.540;11.932;2023-02-19T11:38:42;96560.34;;;9.99;100.00
11038;BME280;5572;49.540;11.932;2023-02-19T11:41:14;96586.28;;;10.24;100.00
11038;BME280;5572;49.540;11.932;2023-02-19T11:44:00;96614.53;;;10.83;100.00
11038;BME280;5572;49.540;11.932;2023-02-19T11:46:36;96597.25;;;11.02;100.00
11038;BME280;5572;49.540;11.932;2023-02-19T11:49:20;96542.84;;;11.22;100.00
11038;BME280;5572;49.540;11.932;2023-02-19T11:52:04;96470.13;;;10.65;100.00
11038;BME280;5572;49.540;11.932;2023-02-19T11:54:48;96455.34;;;10.76;100.00
11038;BME280;5572;49.540;11.932;2023-02-19T11:57:34;96428.19;;;10.49;100.00
11038;BME280;5572;49.540;11.932;2023-02-19T12:00:26;96421.50;;;10.24;100.00
11038;BME280;5572;49.540;11.932;2023-02-19T12:06:04;96418.53;;;9.78;100.00
11038;BME280;5572;49.540;11.932;2023-02-19T12:08:49;96436.59;;;9.83;100.00
11038;BME280;5572;49.540;11.932;2023-02-19T12:11:30;96435.09;;;9.72;100.00
11038;BME280;5572;49.540;11.932;2023-02-19T12:17:45;96443.81;;;9.87;100.00
11038;BME280;5572;49.540;11.932;2023-02-19T12:20:23;96441.81;;;9.98;100.00
11038;BME280;5572;49.540;11.932;2023-02-19T12:23:06;96481.22;;;10.22;100.00
11038;BME280;5572;49.540;11.932;2023-02-19T12:25:53;96472.47;;;10.30;100.00
11038;BME280;5572;49.540;11.932;2023-02-19T12:28:42;96453.88;;;10.28;100.00
11038;BME280;5572;49.540;11.932;2023-02-19T12:34:34;96466.91;;;9.98;100.00
11038;BME280;5572;49.540;11.932;2023-02-19T12:37:20;96433.25;;;9.91;100.00
11038;BME280;5572;49.540;11.932;2023-02-19T12:39:59;96431.97;;;9.83;100.00
11038;BME280;5572;49.540;11.932;2023-02-19T12:42:48;96433.38;;;9.81;100.00
11038;BME280;5572;49.540;11.932;2023-02-19T12:48:43;96444.06;;;9.67;100.00
11038;BME280;5572;49.540;11.932;2023-02-19T12:51:17;96460.69;;;9.98;100.00
11038;BME280;5572;49.540;11.932;2023-02-19T12:53:50;96433.75;;;9.69;100.00
11038;BME280;5572;49.540;11.932;2023-02-19T12:56:26;96464.13;;;9.56;100.00
11038;BME280;5572;49.540;11.932;2023-02-19T12:58:57;96491.59;;;9.58;100.00
11038;BME280;5572;49.540;11.932;2023-02-19T13:01:29;96500.28;;;9.55;100.00
11038;BME280;5572;49.540;11.932;2023-02-19T13:04:13;96516.94;;;9.62;100.00
11038;BME280;5572;49.540;11.932;2023-02-19T13:06:47;96541.97;;;9.73;100.00
11038;BME280;5572;49.540;11.932;2023-02-19T13:09:19;96547.53;;;9.81;100.00
11038;BME280;5572;49.540;11.932;2023-02-19T13:11:54;96547.38;;;9.73;100.00
11038;BME280;5572;49.540;11.932;2023-02-19T13:14:26;96555.84;;;9.85;100.00
11038;BME280;5572;49.540;11.932;2023-02-19T13:16:57;96575.41;;;10.05;100.00
11038;BME280;5572;49.540;11.932;2023-02-19T13:19:26;96536.97;;;9.85;100.00
11038;BME280;5572;49.540;11.932;2023-02-19T13:22:01;96526.25;;;9.75;100.00
11038;BME280;5572;49.540;11.932;2023-02-19T13:24:48;96526.38;;;9.65;100.00
11038;BME280;5572;49.540;11.932;2023-02-19T13:30:20;96556.19;;;9.50;100.00
11038;BME280;5572;49.540;11.932;2023-02-19T13:32:57;96562.88;;;9.57;100.00
11038;BME280;5572;49.540;11.932;2023-02-19T13:35:53;96575.69;;;9.70;100.00
11038;BME280;5572;49.540;11.932;2023-02-19T13:38:26;96558.88;;;9.78;100.00
11038;BME280;5572;49.540;11.932;2023-02-19T13:40:54;96526.41;;;9.60;100.00